createdAt,value
2022-10-08T00:00:28.885Z,74.17
2022-10-08T00:01:51.985Z,74.24
2022-10-08T00:02:54.995Z,74.35
2022-10-08T00:03:58.561Z,74.53
2022-10-08T00:05:02.266Z,74.55
2022-10-08T00:06:15.051Z,74.43
2022-10-08T00:07:19.262Z,74.78
2022-10-08T00:08:22.158Z,74.68
2022-10-08T00:09:25.176Z,74.62
2022-10-08T00:10:28.163Z,74.65
2022-10-08T00:11:38.195Z,74.67
2022-10-08T00:12:45.215Z,74.87
2022-10-08T00:13:50.479Z,74.75
2022-10-08T00:14:54.140Z,74.81
2022-10-08T00:15:58.282Z,74.61
2022-10-08T00:17:01.322Z,74.95
2022-10-08T00:18:04.548Z,74.88
2022-10-08T00:19:11.714Z,75.04
2022-10-08T00:20:14.817Z,74.92
2022-10-08T00:21:24.163Z,75.03
2022-10-08T00:22:27.212Z,74.95
2022-10-08T00:23:30.250Z,75.07
2022-10-08T00:24:33.205Z,74.93
2022-10-08T00:25:44.107Z,75.14
2022-10-08T00:26:47.790Z,75.07
2022-10-08T00:27:51.243Z,75.53
2022-10-08T00:28:58.310Z,75.25
2022-10-08T00:30:01.393Z,75.41
2022-10-08T00:31:10.065Z,75.21
2022-10-08T00:32:13.223Z,75.40
2022-10-08T00:33:16.156Z,75.51
2022-10-08T00:34:23.256Z,75.39
2022-10-08T00:35:26.327Z,75.39
2022-10-08T00:36:34.482Z,75.71
2022-10-08T00:37:37.485Z,75.62
2022-10-08T00:38:40.806Z,75.71
2022-10-08T00:39:44.633Z,75.88
2022-10-08T00:40:47.702Z,75.82
2022-10-08T00:41:54.042Z,75.74
2022-10-08T00:43:00.420Z,75.87
2022-10-08T00:44:24.353Z,75.95
2022-10-08T00:45:27.538Z,75.97
2022-10-08T00:46:48.719Z,76.02
2022-10-08T00:47:54.084Z,76.36
2022-10-08T00:49:11.476Z,76.36
2022-10-08T00:50:16.794Z,76.23
2022-10-08T00:51:19.847Z,76.22
2022-10-08T00:52:25.157Z,76.41
2022-10-08T00:53:28.180Z,76.27
2022-10-08T00:54:32.723Z,76.53
2022-10-08T00:55:43.155Z,76.54
2022-10-08T00:56:52.529Z,76.62
2022-10-08T00:58:22.497Z,76.43
2022-10-08T00:59:26.383Z,76.69
2022-10-08T01:00:30.585Z,76.65
2022-10-08T01:01:34.780Z,76.64
2022-10-08T01:02:37.995Z,76.81
2022-10-08T01:03:40.992Z,76.86
2022-10-08T01:04:44.288Z,77.21
2022-10-08T01:06:10.045Z,77.05
2022-10-08T01:07:33.088Z,76.75
2022-10-08T01:09:01.033Z,77.02
2022-10-08T01:10:14.273Z,77.29
2022-10-08T01:11:28.854Z,77.10
2022-10-08T01:12:52.561Z,77.45
2022-10-08T01:14:14.216Z,77.32
2022-10-08T01:15:39.807Z,77.38
2022-10-08T01:16:55.833Z,77.18
2022-10-08T01:18:29.069Z,77.42
2022-10-08T01:19:48.477Z,77.66
2022-10-08T01:21:27.443Z,77.58
2022-10-08T01:22:51.632Z,77.68
2022-10-08T01:24:09.541Z,77.85
2022-10-08T01:25:33.857Z,77.93
2022-10-08T01:26:49.089Z,77.57
2022-10-08T01:28:00.997Z,77.98
2022-10-08T01:29:04.161Z,77.92
2022-10-08T01:30:12.998Z,78.09
2022-10-08T01:33:02.491Z,77.81
2022-10-08T01:34:13.103Z,77.74
2022-10-08T01:35:21.902Z,78.00
2022-10-08T01:36:27.549Z,77.96
2022-10-08T01:37:36.490Z,78.15
2022-10-08T01:38:43.275Z,78.13
2022-10-08T01:39:49.316Z,78.03
2022-10-08T01:40:58.916Z,77.99
2022-10-08T01:42:05.630Z,78.18
2022-10-08T01:43:12.959Z,78.11
2022-10-08T01:44:23.322Z,78.01
2022-10-08T01:45:28.499Z,77.82
2022-10-08T01:46:33.526Z,77.84
2022-10-08T01:47:40.946Z,78.35
2022-10-08T01:48:44.834Z,78.58
2022-10-08T01:49:55.911Z,78.36
2022-10-08T01:51:17.188Z,78.41
2022-10-08T01:52:37.093Z,78.61
2022-10-08T01:53:45.894Z,78.63
2022-10-08T01:54:52.178Z,78.68
2022-10-08T01:55:56.094Z,78.86
2022-10-08T01:57:02.309Z,78.73
2022-10-08T01:58:13.632Z,78.77
2022-10-08T01:59:42.199Z,78.73
2022-10-08T02:00:47.633Z,78.68
2022-10-08T02:02:01.160Z,78.68
2022-10-08T02:03:04.565Z,78.95
2022-10-08T02:04:26.245Z,78.77
2022-10-08T02:05:34.292Z,78.76
2022-10-08T02:06:42.586Z,78.78
2022-10-08T02:07:45.798Z,78.69
2022-10-08T02:08:49.802Z,78.66
2022-10-08T02:10:02.654Z,78.76
2022-10-08T02:11:06.089Z,78.95
2022-10-08T02:12:10.079Z,78.85
2022-10-08T02:13:13.484Z,78.83
2022-10-08T02:14:16.761Z,78.72
2022-10-08T02:15:46.168Z,78.69
2022-10-08T02:17:12.493Z,78.72
2022-10-08T02:18:19.122Z,78.74
2022-10-08T02:19:28.223Z,78.93
2022-10-08T02:20:37.746Z,78.91
2022-10-08T02:21:43.255Z,78.96
2022-10-08T02:23:01.187Z,79.17
2022-10-08T02:24:26.978Z,79.24
2022-10-08T02:25:44.786Z,78.92
2022-10-08T02:26:51.051Z,79.20
2022-10-08T02:28:10.719Z,78.96
2022-10-08T02:29:20.555Z,79.18
2022-10-08T02:30:24.750Z,78.89
2022-10-08T02:31:49.188Z,79.15
2022-10-08T02:33:00.432Z,79.17
2022-10-08T02:34:17.803Z,79.19
2022-10-08T02:35:27.049Z,79.29
2022-10-08T02:36:39.203Z,79.15
2022-10-08T02:37:47.574Z,78.94
2022-10-08T02:38:54.596Z,79.15
2022-10-08T02:40:05.245Z,79.24
2022-10-08T02:41:10.527Z,79.42
2022-10-08T02:42:19.217Z,79.60
2022-10-08T02:43:26.582Z,79.49
2022-10-08T02:44:35.178Z,79.51
2022-10-08T02:45:46.769Z,79.71
2022-10-08T02:46:54.164Z,79.75
2022-10-08T02:48:08.592Z,79.82
2022-10-08T02:49:33.802Z,79.95
2022-10-08T02:50:40.586Z,80.04
2022-10-08T02:51:49.396Z,79.97
2022-10-08T02:52:52.756Z,80.00
2022-10-08T02:53:56.501Z,80.28
2022-10-08T02:55:01.335Z,80.07
2022-10-08T02:56:13.769Z,80.62
2022-10-08T02:57:29.784Z,80.25
2022-10-08T02:58:33.015Z,80.43
2022-10-08T02:59:36.524Z,80.58
2022-10-08T03:00:49.283Z,80.96
2022-10-08T03:01:57.547Z,81.59
2022-10-08T03:03:15.075Z,80.61
2022-10-08T03:04:27.724Z,80.72
2022-10-08T03:05:30.996Z,80.77
2022-10-08T03:06:36.006Z,81.45
2022-10-08T03:07:39.005Z,81.36
2022-10-08T03:08:46.471Z,81.10
2022-10-08T03:09:52.951Z,81.02
2022-10-08T03:10:59.448Z,81.04
2022-10-08T03:12:02.928Z,81.07
2022-10-08T03:13:07.644Z,81.10
2022-10-08T03:14:14.044Z,81.16
2022-10-08T03:15:17.080Z,81.25
2022-10-08T03:16:23.870Z,81.21
2022-10-08T03:17:35.838Z,81.16
2022-10-08T03:18:40.024Z,81.09
2022-10-08T03:19:42.956Z,81.13
2022-10-08T03:20:50.803Z,80.95
2022-10-08T03:21:56.566Z,81.05
2022-10-08T03:23:01.796Z,80.99
2022-10-08T03:24:06.300Z,81.09
2022-10-08T03:25:09.492Z,80.97
2022-10-08T03:26:12.596Z,81.10
2022-10-08T03:27:15.740Z,81.01
2022-10-08T03:28:18.709Z,81.02
2022-10-08T03:29:21.688Z,81.17
2022-10-08T03:30:24.915Z,81.09
2022-10-08T03:31:27.962Z,80.92
2022-10-08T03:32:31.179Z,80.82
2022-10-08T03:33:34.576Z,80.93
2022-10-08T03:34:37.588Z,81.05
2022-10-08T03:35:47.596Z,81.15
2022-10-08T03:36:50.640Z,81.11
2022-10-08T03:37:54.103Z,81.07
2022-10-08T03:38:57.519Z,81.19
2022-10-08T03:40:00.559Z,81.30
2022-10-08T03:41:03.552Z,80.96
2022-10-08T03:42:06.438Z,81.16
2022-10-08T03:43:09.479Z,81.31
2022-10-08T03:44:12.530Z,81.13
2022-10-08T03:45:15.667Z,81.35
2022-10-08T03:46:19.452Z,81.31
2022-10-08T03:47:22.356Z,81.66
2022-10-08T03:48:25.467Z,81.52
2022-10-08T03:49:28.459Z,81.49
2022-10-08T03:50:31.554Z,81.67
2022-10-08T03:51:34.688Z,81.58
2022-10-08T03:52:37.886Z,81.53
2022-10-08T03:53:42.891Z,81.53
2022-10-08T03:54:45.830Z,81.57
2022-10-08T03:55:49.147Z,81.54
2022-10-08T03:56:52.224Z,81.43
2022-10-08T03:57:55.176Z,81.50
2022-10-08T03:58:59.940Z,81.36
2022-10-08T04:00:03.726Z,81.47
2022-10-08T04:01:11.866Z,81.39
2022-10-08T04:02:15.051Z,81.31
2022-10-08T04:03:17.998Z,81.49
2022-10-08T04:04:25.352Z,81.51
2022-10-08T04:05:28.859Z,81.43
2022-10-08T04:06:31.943Z,81.49
2022-10-08T04:07:35.022Z,81.51
2022-10-08T04:08:40.678Z,81.39
2022-10-08T04:09:46.519Z,81.40
2022-10-08T04:10:49.747Z,81.50
2022-10-08T04:11:52.769Z,81.66
2022-10-08T04:12:56.044Z,81.56
2022-10-08T04:14:01.098Z,81.51
2022-10-08T04:15:07.482Z,81.50
2022-10-08T04:16:15.838Z,81.73
2022-10-08T04:17:19.099Z,81.69
2022-10-08T04:18:23.688Z,81.71
2022-10-08T04:19:26.634Z,81.55
2022-10-08T04:20:37.416Z,81.82
2022-10-08T04:21:41.335Z,81.83
2022-10-08T04:22:44.852Z,81.71
2022-10-08T04:23:51.250Z,81.79
2022-10-08T04:24:54.636Z,81.89
2022-10-08T04:25:57.889Z,81.63
2022-10-08T04:27:01.038Z,81.68
2022-10-08T04:28:06.080Z,81.76
2022-10-08T04:29:12.629Z,81.56
2022-10-08T04:30:16.635Z,81.75
2022-10-08T04:31:23.210Z,81.53
2022-10-08T04:32:26.274Z,81.55
2022-10-08T04:33:31.279Z,81.56
2022-10-08T04:34:34.235Z,81.54
2022-10-08T04:35:38.253Z,81.44
2022-10-08T04:36:41.469Z,81.57
2022-10-08T04:37:44.414Z,81.51
2022-10-08T04:38:48.141Z,81.38
2022-10-08T04:39:51.158Z,81.45
2022-10-08T04:41:11.920Z,81.49
2022-10-08T04:42:15.346Z,81.48
2022-10-08T04:43:18.257Z,81.51
2022-10-08T04:44:21.256Z,81.41
2022-10-08T04:45:24.179Z,81.43
2022-10-08T04:46:27.728Z,81.45
2022-10-08T04:47:31.135Z,81.62
2022-10-08T04:48:34.300Z,81.43
2022-10-08T04:49:37.479Z,81.60
2022-10-08T04:50:40.607Z,81.52
2022-10-08T04:51:43.619Z,81.63
2022-10-08T04:52:46.888Z,81.32
2022-10-08T04:53:51.101Z,81.50
2022-10-08T04:54:54.021Z,81.57
2022-10-08T04:55:57.855Z,81.68
2022-10-08T04:57:00.812Z,81.67
2022-10-08T04:58:03.839Z,81.76
2022-10-08T04:59:06.731Z,81.86
2022-10-08T05:00:19.135Z,81.71
2022-10-08T05:01:23.830Z,81.78
2022-10-08T05:02:26.858Z,81.89
2022-10-08T05:03:30.057Z,81.69
2022-10-08T05:04:33.081Z,81.59
2022-10-08T05:05:44.331Z,81.37
2022-10-08T05:06:47.470Z,81.57
2022-10-08T05:07:50.803Z,81.57
2022-10-08T05:09:04.206Z,81.52
2022-10-08T05:10:08.987Z,81.69
2022-10-08T05:11:12.891Z,81.69
2022-10-08T05:12:15.936Z,81.75
2022-10-08T05:13:19.161Z,81.90
2022-10-08T05:14:22.320Z,81.94
2022-10-08T05:15:25.304Z,81.76
2022-10-08T05:16:28.273Z,81.75
2022-10-08T05:17:31.244Z,81.66
2022-10-08T05:18:35.383Z,81.77
2022-10-08T05:19:38.511Z,81.70
2022-10-08T05:20:41.507Z,81.73
2022-10-08T05:21:44.587Z,81.65
2022-10-08T05:22:48.009Z,81.66
2022-10-08T05:23:56.277Z,81.74
2022-10-08T05:24:59.338Z,81.90
2022-10-08T05:26:18.373Z,81.66
2022-10-08T05:27:21.662Z,81.96
2022-10-08T05:28:24.902Z,81.77
2022-10-08T05:29:30.779Z,81.97
2022-10-08T05:30:33.976Z,82.05
2022-10-08T05:31:38.395Z,81.74
2022-10-08T05:32:41.388Z,81.94
2022-10-08T05:33:45.075Z,82.03
2022-10-08T05:34:48.210Z,82.14
2022-10-08T05:35:51.442Z,82.15
2022-10-08T05:36:54.432Z,82.36
2022-10-08T05:37:57.634Z,82.67
2022-10-08T05:39:02.637Z,82.49
2022-10-08T05:40:05.937Z,82.54
2022-10-08T05:41:18.200Z,82.43
2022-10-08T05:42:21.219Z,82.53
2022-10-08T05:43:24.183Z,82.84
2022-10-08T05:44:27.152Z,82.48
2022-10-08T05:45:30.127Z,82.67
2022-10-08T05:46:35.259Z,82.61
2022-10-08T05:47:38.319Z,82.71
2022-10-08T05:48:42.060Z,82.73
2022-10-08T05:49:45.037Z,82.84
2022-10-08T05:50:48.044Z,83.02
2022-10-08T05:51:51.380Z,82.61
2022-10-08T05:52:54.348Z,82.69
2022-10-08T05:54:00.197Z,82.94
2022-10-08T05:55:03.463Z,82.73
2022-10-08T05:56:08.987Z,82.71
2022-10-08T05:57:12.009Z,82.37
2022-10-08T05:58:15.022Z,82.54
2022-10-08T05:59:21.655Z,82.51
2022-10-08T06:00:24.695Z,82.70
2022-10-08T06:01:30.830Z,82.84
2022-10-08T06:02:33.864Z,82.63
2022-10-08T06:03:36.870Z,82.95
2022-10-08T06:04:39.914Z,82.92
2022-10-08T06:05:43.032Z,82.41
2022-10-08T06:06:46.508Z,82.76
2022-10-08T06:07:49.671Z,82.74
2022-10-08T06:08:58.634Z,82.72
2022-10-08T06:10:01.732Z,82.76
2022-10-08T06:11:06.307Z,82.61
2022-10-08T06:12:10.164Z,82.68
2022-10-08T06:13:14.784Z,82.89
2022-10-08T06:14:20.326Z,82.46
2022-10-08T06:15:23.409Z,82.76
2022-10-08T06:16:27.691Z,82.88
2022-10-08T06:17:30.910Z,82.93
2022-10-08T06:18:37.341Z,82.65
2022-10-08T06:19:40.307Z,82.54
2022-10-08T06:20:43.328Z,82.06
2022-10-08T06:21:46.394Z,82.54
2022-10-08T06:22:49.729Z,82.47
2022-10-08T06:23:55.330Z,82.32
2022-10-08T06:24:58.423Z,82.02
2022-10-08T06:26:05.671Z,82.25
2022-10-08T06:27:08.791Z,82.04
2022-10-08T06:28:12.221Z,82.46
2022-10-08T06:29:17.758Z,81.93
2022-10-08T06:30:21.475Z,82.15
2022-10-08T06:31:26.572Z,81.86
2022-10-08T06:32:29.572Z,81.80
2022-10-08T06:33:32.823Z,81.45
2022-10-08T06:34:36.659Z,81.54
2022-10-08T06:35:39.756Z,81.63
2022-10-08T06:36:42.925Z,81.52
2022-10-08T06:37:48.841Z,81.40
2022-10-08T06:38:57.879Z,81.16
2022-10-08T06:40:01.127Z,81.13
2022-10-08T06:41:04.191Z,81.03
2022-10-08T06:42:07.276Z,81.06
2022-10-08T06:43:15.758Z,80.86
2022-10-08T06:44:19.278Z,80.90
2022-10-08T06:45:22.284Z,80.90
2022-10-08T06:46:25.387Z,81.00
2022-10-08T06:47:28.440Z,80.91
2022-10-08T06:48:31.831Z,80.82
2022-10-08T06:49:35.136Z,80.93
2022-10-08T06:50:39.264Z,80.73
2022-10-08T06:51:42.316Z,80.72
2022-10-08T06:52:46.138Z,80.68
2022-10-08T06:53:54.935Z,80.35
2022-10-08T06:54:58.451Z,80.39
2022-10-08T06:56:05.244Z,80.23
2022-10-08T06:57:08.305Z,80.26
2022-10-08T06:58:11.195Z,80.05
2022-10-08T06:59:14.172Z,79.75
2022-10-08T07:00:17.553Z,79.90
2022-10-08T07:01:31.846Z,79.82
2022-10-08T07:02:36.342Z,79.64
2022-10-08T07:03:39.653Z,79.37
2022-10-08T07:04:42.550Z,79.25
2022-10-08T07:05:45.514Z,79.26
2022-10-08T07:06:49.266Z,79.01
2022-10-08T07:07:52.649Z,79.07
2022-10-08T07:09:01.244Z,78.90
2022-10-08T07:10:05.638Z,78.81
2022-10-08T07:11:17.065Z,78.49
2022-10-08T07:12:20.289Z,78.47
2022-10-08T07:13:23.404Z,78.60
2022-10-08T07:14:26.358Z,78.72
2022-10-08T07:15:31.269Z,78.72
2022-10-08T07:16:34.429Z,78.58
2022-10-08T07:17:37.701Z,78.34
2022-10-08T07:18:41.407Z,78.17
2022-10-08T07:19:44.383Z,78.25
2022-10-08T07:20:55.859Z,78.12
2022-10-08T07:22:01.319Z,78.22
2022-10-08T07:23:04.753Z,78.10
2022-10-08T07:24:07.840Z,78.10
2022-10-08T07:25:10.986Z,78.02
2022-10-08T07:26:19.171Z,77.76
2022-10-08T07:27:22.168Z,77.80
2022-10-08T07:28:27.614Z,77.42
2022-10-08T07:29:30.748Z,77.34
2022-10-08T07:30:36.396Z,77.20
2022-10-08T07:31:39.666Z,77.27
2022-10-08T07:32:42.656Z,77.12
2022-10-08T07:33:45.689Z,76.92
2022-10-08T07:34:48.729Z,76.81
2022-10-08T07:35:51.711Z,76.84
2022-10-08T07:36:54.765Z,76.74
2022-10-08T07:37:58.000Z,76.54
2022-10-08T07:39:03.886Z,76.53
2022-10-08T07:40:07.264Z,76.44
2022-10-08T07:41:11.669Z,76.59
2022-10-08T07:42:17.075Z,76.76
2022-10-08T07:43:20.083Z,76.73
2022-10-08T07:44:23.248Z,76.56
2022-10-08T07:45:26.224Z,76.61
2022-10-08T07:46:31.305Z,76.65
2022-10-08T07:47:34.790Z,76.66
2022-10-08T07:48:38.907Z,76.71
2022-10-08T07:49:41.967Z,76.39
2022-10-08T07:50:44.953Z,76.54
2022-10-08T07:51:48.166Z,76.44
2022-10-08T07:52:51.292Z,76.72
2022-10-08T07:53:57.677Z,76.59
2022-10-08T07:55:03.939Z,76.19
2022-10-08T07:56:09.136Z,75.92
2022-10-08T07:57:12.107Z,76.05
2022-10-08T07:58:15.147Z,75.12
2022-10-08T07:59:18.070Z,74.81
2022-10-08T08:00:25.897Z,74.96
2022-10-08T08:01:30.454Z,74.80
2022-10-08T08:02:33.764Z,74.85
2022-10-08T08:03:36.784Z,74.79
2022-10-08T08:04:39.958Z,75.03
2022-10-08T08:05:43.041Z,74.34
2022-10-08T08:06:52.404Z,74.22
2022-10-08T08:07:55.402Z,73.23
2022-10-08T08:09:00.376Z,72.88
2022-10-08T08:10:04.043Z,72.79
2022-10-08T08:11:09.287Z,72.67
2022-10-08T08:12:12.511Z,72.74
2022-10-08T08:13:15.807Z,71.48
2022-10-08T08:14:19.824Z,71.53
2022-10-08T08:15:22.985Z,71.46
2022-10-08T08:16:27.904Z,70.96
2022-10-08T08:17:31.413Z,70.79
2022-10-08T08:18:37.222Z,70.48
2022-10-08T08:19:40.330Z,70.16
2022-10-08T08:20:43.377Z,70.33
2022-10-08T08:21:46.826Z,70.51
2022-10-08T08:22:50.555Z,70.30
2022-10-08T08:23:55.846Z,69.86
2022-10-08T08:24:58.892Z,69.97
2022-10-08T08:26:03.796Z,69.71
2022-10-08T08:27:06.938Z,69.99
2022-10-08T08:28:10.061Z,69.18
2022-10-08T08:29:18.555Z,68.99
2022-10-08T08:30:21.996Z,69.22
2022-10-08T08:31:30.824Z,68.86
2022-10-08T08:32:34.235Z,68.55
2022-10-08T08:33:37.473Z,68.63
2022-10-08T08:34:40.956Z,68.42
2022-10-08T08:35:53.532Z,68.22
2022-10-08T08:36:59.230Z,68.29
2022-10-08T08:38:02.329Z,67.75
2022-10-08T08:39:07.721Z,67.49
2022-10-08T08:40:11.118Z,67.29
2022-10-08T08:41:37.752Z,66.60
2022-10-08T08:42:52.227Z,66.73
2022-10-08T08:44:08.657Z,66.08
2022-10-08T08:45:45.815Z,65.70
2022-10-08T08:47:05.160Z,65.98
2022-10-08T08:48:24.886Z,65.20
2022-10-08T08:49:34.881Z,64.94
2022-10-08T08:50:45.503Z,65.24
2022-10-08T08:51:52.636Z,64.95
2022-10-08T08:52:56.129Z,63.93
2022-10-08T08:53:59.945Z,63.89
2022-10-08T08:55:17.157Z,64.13
2022-10-08T08:56:22.566Z,64.26
2022-10-08T08:57:41.665Z,64.13
2022-10-08T08:59:00.184Z,63.76
2022-10-08T09:00:11.416Z,63.84
2022-10-08T09:01:20.276Z,63.65
2022-10-08T09:02:28.692Z,63.60
2022-10-08T09:03:41.189Z,63.74
2022-10-08T09:04:50.616Z,63.51
2022-10-08T09:05:58.371Z,63.49
2022-10-08T09:07:05.827Z,63.54
2022-10-08T09:08:18.059Z,63.45
2022-10-08T09:09:42.849Z,63.17
2022-10-08T09:10:52.669Z,63.54
2022-10-08T09:11:56.030Z,63.48
2022-10-08T09:13:01.683Z,63.31
2022-10-08T09:14:37.023Z,63.10
2022-10-08T09:15:40.625Z,63.00
2022-10-08T09:16:43.734Z,62.59
2022-10-08T09:17:51.794Z,62.22
2022-10-08T09:18:54.866Z,62.11
2022-10-08T09:19:58.721Z,62.20
2022-10-08T09:21:02.147Z,61.69
2022-10-08T09:22:20.830Z,61.62
2022-10-08T09:23:26.486Z,61.79
2022-10-08T09:24:29.827Z,61.86
2022-10-08T09:25:34.053Z,61.52
2022-10-08T09:26:37.024Z,61.48
2022-10-08T09:27:48.095Z,61.66
2022-10-08T09:28:56.955Z,61.40
2022-10-08T09:30:00.044Z,61.24
2022-10-08T09:31:31.108Z,61.25
2022-10-08T09:32:34.183Z,61.13
2022-10-08T09:33:39.960Z,61.25
2022-10-08T09:34:43.885Z,61.41
2022-10-08T09:35:51.840Z,61.43
2022-10-08T09:37:04.911Z,61.42
2022-10-08T09:38:19.985Z,61.33
2022-10-08T09:39:24.500Z,61.52
2022-10-08T09:40:28.531Z,61.27
2022-10-08T09:41:31.786Z,61.53
2022-10-08T09:42:34.732Z,61.77
2022-10-08T09:43:37.658Z,61.50
2022-10-08T09:44:46.299Z,61.45
2022-10-08T09:45:49.802Z,61.39
2022-10-08T09:47:05.684Z,61.39
2022-10-08T09:48:29.705Z,61.26
2022-10-08T09:49:38.488Z,60.74
2022-10-08T09:50:53.267Z,61.11
2022-10-08T09:51:59.478Z,60.83
2022-10-08T09:53:02.627Z,60.92
2022-10-08T09:54:06.175Z,59.95
2022-10-08T09:55:17.788Z,59.81
2022-10-08T09:56:28.150Z,59.63
2022-10-08T09:57:33.852Z,59.54
2022-10-08T09:58:49.264Z,58.92
2022-10-08T10:00:02.844Z,59.05
2022-10-08T10:01:15.810Z,59.48
2022-10-08T10:02:36.890Z,58.83
2022-10-08T10:03:47.622Z,58.40
2022-10-08T10:04:55.351Z,58.71
2022-10-08T10:06:02.103Z,58.82
2022-10-08T10:07:05.694Z,58.39
2022-10-08T10:08:43.341Z,58.51
2022-10-08T10:09:58.708Z,58.08
2022-10-08T10:11:02.149Z,57.97
2022-10-08T10:12:25.154Z,58.17
2022-10-08T10:13:35.469Z,58.07
2022-10-08T10:14:44.157Z,57.82
2022-10-08T10:15:53.173Z,57.92
2022-10-08T10:17:02.673Z,57.86
2022-10-08T10:18:14.070Z,57.73
2022-10-08T10:19:22.643Z,57.67
2022-10-08T10:20:36.369Z,57.17
2022-10-08T10:21:53.545Z,56.57
2022-10-08T10:23:02.892Z,56.35
2022-10-08T10:24:43.270Z,56.40
2022-10-08T10:26:06.338Z,56.71
2022-10-08T10:27:16.450Z,56.66
2022-10-08T10:28:43.134Z,56.52
2022-10-08T10:30:05.331Z,55.69
2022-10-08T10:31:32.169Z,55.97
2022-10-08T10:32:44.883Z,56.13
2022-10-08T10:34:02.834Z,55.66
2022-10-08T10:35:17.382Z,55.26
2022-10-08T10:36:22.297Z,55.48
2022-10-08T10:37:34.430Z,55.55
2022-10-08T10:38:50.304Z,55.54
2022-10-08T10:40:16.472Z,55.33
2022-10-08T10:41:28.582Z,55.16
2022-10-08T10:42:51.091Z,55.36
2022-10-08T10:44:00.790Z,55.27
2022-10-08T10:45:18.369Z,55.37
2022-10-08T10:46:44.638Z,55.36
2022-10-08T10:47:50.439Z,55.22
2022-10-08T10:48:53.619Z,55.36
2022-10-08T10:49:58.644Z,55.28
2022-10-08T10:51:19.669Z,55.17
2022-10-08T10:53:00.506Z,55.00
2022-10-08T10:54:25.224Z,55.35
2022-10-08T10:55:54.706Z,55.49
2022-10-08T10:57:05.059Z,55.21
2022-10-08T10:58:21.924Z,55.08
2022-10-08T10:59:46.609Z,55.24
2022-10-08T11:01:08.442Z,55.09
2022-10-08T11:02:21.246Z,55.21
2022-10-08T11:03:45.968Z,55.06
2022-10-08T11:05:14.848Z,55.35
2022-10-08T11:06:49.706Z,55.52
2022-10-08T11:08:14.619Z,55.39
2022-10-08T11:09:49.397Z,55.00
2022-10-08T11:10:55.404Z,55.12
2022-10-08T11:12:10.016Z,55.19
2022-10-08T11:13:30.844Z,54.75
2022-10-08T11:14:37.130Z,54.27
2022-10-08T11:15:49.720Z,54.09
2022-10-08T11:17:13.035Z,53.81
2022-10-08T11:18:16.215Z,53.91
2022-10-08T11:19:37.164Z,53.57
2022-10-08T11:20:40.275Z,53.37
2022-10-08T11:22:07.946Z,52.83
2022-10-08T11:23:39.136Z,53.33
2022-10-08T11:24:48.496Z,52.91
2022-10-08T11:26:20.491Z,52.21
2022-10-08T11:27:48.053Z,51.96
2022-10-08T11:29:17.161Z,51.56
2022-10-08T11:30:37.436Z,52.34
2022-10-08T11:31:43.535Z,51.93
2022-10-08T11:32:53.778Z,51.64
2022-10-08T11:33:57.568Z,52.13
2022-10-08T11:35:13.156Z,52.27
2022-10-08T11:36:32.801Z,51.70
2022-10-08T11:37:56.687Z,51.69
2022-10-08T11:39:26.701Z,51.56
2022-10-08T11:40:53.592Z,51.71
2022-10-08T11:42:00.958Z,51.83
2022-10-08T11:43:22.747Z,52.24
2022-10-08T11:44:26.927Z,52.05
2022-10-08T11:45:36.630Z,51.94
2022-10-08T11:46:41.102Z,52.15
2022-10-08T11:47:44.250Z,52.03
2022-10-08T11:48:47.546Z,51.88
2022-10-08T11:49:55.318Z,51.46
2022-10-08T11:51:20.088Z,51.41
2022-10-08T11:52:34.045Z,51.40
2022-10-08T11:53:43.576Z,51.01
2022-10-08T11:55:02.163Z,51.25
2022-10-08T11:56:19.899Z,51.09
2022-10-08T11:58:06.194Z,51.22
2022-10-08T11:59:25.746Z,51.56
2022-10-08T12:00:39.637Z,51.60
2022-10-08T12:02:02.153Z,51.48
2022-10-08T12:03:47.230Z,51.60
2022-10-08T12:04:52.820Z,51.71
2022-10-08T12:05:59.973Z,51.77
2022-10-08T12:07:27.923Z,51.81
2022-10-08T12:08:53.235Z,51.95
2022-10-08T12:10:05.649Z,51.97
2022-10-08T12:11:39.659Z,51.47
2022-10-08T12:12:51.767Z,51.75
2022-10-08T12:14:13.434Z,52.01
2022-10-08T12:15:22.890Z,51.92
2022-10-08T12:16:48.928Z,51.72
2022-10-08T12:17:57.616Z,51.74
2022-10-08T12:19:00.788Z,51.52
2022-10-08T12:20:20.722Z,51.25
2022-10-08T12:21:27.025Z,51.45
2022-10-08T12:22:29.953Z,51.27
2022-10-08T12:23:35.527Z,51.07
2022-10-08T12:24:38.584Z,51.20
2022-10-08T12:25:44.439Z,51.31
2022-10-08T12:27:20.939Z,51.31
2022-10-08T12:28:24.094Z,51.22
2022-10-08T12:29:48.053Z,51.20
2022-10-08T12:31:02.256Z,50.84
2022-10-08T12:32:05.547Z,51.12
2022-10-08T12:33:09.355Z,51.15
2022-10-08T12:34:20.147Z,51.51
2022-10-08T12:35:38.367Z,51.70
2022-10-08T12:36:48.495Z,51.47
2022-10-08T12:38:03.688Z,51.28
2022-10-08T12:39:31.723Z,50.90
2022-10-08T12:40:41.441Z,50.69
2022-10-08T12:41:59.851Z,50.48
2022-10-08T12:43:34.328Z,50.74
2022-10-08T12:44:59.773Z,49.95
2022-10-08T12:46:14.121Z,50.70
2022-10-08T12:47:40.620Z,50.70
2022-10-08T12:48:53.819Z,49.90
2022-10-08T12:50:05.207Z,50.33
2022-10-08T12:51:45.582Z,50.34
2022-10-08T12:52:48.797Z,50.15
2022-10-08T12:53:52.254Z,50.07
2022-10-08T12:54:57.800Z,49.46
2022-10-08T12:56:01.972Z,49.72
2022-10-08T12:57:11.695Z,49.50
2022-10-08T12:58:29.244Z,49.11
2022-10-08T12:59:32.738Z,48.99
2022-10-08T13:00:36.416Z,49.24
2022-10-08T13:01:42.707Z,49.25
2022-10-08T13:03:15.004Z,49.46
2022-10-08T13:04:27.305Z,49.41
2022-10-08T13:05:33.742Z,49.63
2022-10-08T13:06:36.933Z,49.50
2022-10-08T13:07:40.035Z,49.79
2022-10-08T13:08:43.392Z,49.50
2022-10-08T13:09:46.369Z,49.53
2022-10-08T13:10:49.643Z,49.65
2022-10-08T13:11:58.254Z,49.47
2022-10-08T13:13:07.435Z,49.50
2022-10-08T13:14:42.655Z,49.68
2022-10-08T13:15:45.815Z,49.59
2022-10-08T13:16:48.983Z,49.43
2022-10-08T13:17:53.582Z,49.65
2022-10-08T13:18:58.807Z,49.74
2022-10-08T13:20:18.875Z,49.77
2022-10-08T13:21:32.250Z,49.63
2022-10-08T13:22:35.416Z,49.71
2022-10-08T13:23:41.034Z,49.81
2022-10-08T13:24:44.548Z,49.97
2022-10-08T13:25:47.555Z,49.73
2022-10-08T13:26:55.867Z,49.69
2022-10-08T13:28:08.471Z,49.31
2022-10-08T13:29:23.885Z,49.07
2022-10-08T13:30:28.898Z,48.79
2022-10-08T13:31:35.017Z,47.66
2022-10-08T13:32:39.662Z,47.71
2022-10-08T13:33:43.362Z,47.26
2022-10-08T13:34:58.444Z,47.04
2022-10-08T13:36:02.717Z,46.88
2022-10-08T13:37:37.754Z,46.52
2022-10-08T13:38:41.769Z,46.41
2022-10-08T13:39:52.504Z,46.02
2022-10-08T13:40:59.075Z,45.65
2022-10-08T13:42:07.275Z,45.55
2022-10-08T13:43:11.909Z,44.38
2022-10-08T13:44:15.009Z,43.95
2022-10-08T13:45:23.676Z,43.56
2022-10-08T13:46:27.980Z,43.24
2022-10-08T13:47:31.293Z,43.30
2022-10-08T13:48:34.360Z,43.26
2022-10-08T13:49:37.366Z,43.13
2022-10-08T13:50:50.197Z,42.73
2022-10-08T13:51:54.370Z,43.18
2022-10-08T13:53:00.795Z,42.77
2022-10-08T13:54:03.819Z,42.46
2022-10-08T13:55:16.179Z,42.08
2022-10-08T13:56:21.246Z,41.55
2022-10-08T13:57:24.313Z,41.61
2022-10-08T13:58:27.563Z,41.38
2022-10-08T13:59:31.127Z,40.49
2022-10-08T14:00:36.747Z,40.73
2022-10-08T14:01:40.045Z,40.53
2022-10-08T14:02:43.027Z,40.87
2022-10-08T14:03:46.211Z,40.56
2022-10-08T14:04:49.470Z,40.37
2022-10-08T14:05:52.727Z,39.78
2022-10-08T14:06:58.146Z,40.01
2022-10-08T14:08:07.356Z,40.19
2022-10-08T14:09:16.936Z,40.07
2022-10-08T14:10:20.179Z,40.33
2022-10-08T14:11:23.493Z,40.07
2022-10-08T14:12:30.821Z,40.00
2022-10-08T14:13:33.851Z,40.26
2022-10-08T14:14:37.071Z,40.42
2022-10-08T14:15:40.189Z,40.62
2022-10-08T14:16:43.401Z,41.00
2022-10-08T14:17:46.923Z,41.28
2022-10-08T14:18:50.188Z,41.42
2022-10-08T14:19:55.446Z,41.65
2022-10-08T14:20:58.590Z,41.91
2022-10-08T14:22:01.668Z,42.16
2022-10-08T14:23:05.104Z,42.31
2022-10-08T14:24:08.254Z,42.54
2022-10-08T14:25:17.014Z,42.81
2022-10-08T14:26:20.249Z,43.13
2022-10-08T14:27:24.380Z,43.37
2022-10-08T14:28:27.729Z,43.66
2022-10-08T14:29:32.789Z,43.95
2022-10-08T14:30:36.358Z,44.15
2022-10-08T14:31:39.377Z,44.37
2022-10-08T14:32:43.418Z,44.65
2022-10-08T14:33:46.770Z,44.92
2022-10-08T14:34:49.747Z,45.14
2022-10-08T14:35:53.717Z,45.27
2022-10-08T14:36:57.978Z,45.60
2022-10-08T14:38:01.146Z,45.71
2022-10-08T14:39:05.602Z,45.97
2022-10-08T14:40:15.108Z,46.07
2022-10-08T14:41:19.950Z,46.30
2022-10-08T14:42:23.130Z,46.41
2022-10-08T14:43:27.814Z,46.79